Time;durP1;ratioP1;P1;durP2;ratioP2;P2;SDS_P1;SDS_P2;PMS_P1;PMS_P2;Temp;Humidity;BMP_temperature;BMP_pressure;BME280_temperature;BME280_humidity;BME280_pressure;Samples;Min_cycle;Max_cycle;Signal;HPM_P1;HPM_P2
2023/07/07 00:02:25;;;;;;;14.10;12.70;;;;;;;19.21;100.00;92899.84;5069314;28;20188;-73
2023/07/07 00:04:51;;;;;;;14.00;12.80;;;;;;;19.12;100.00;92905.22;5068762;28;20228;-74
2023/07/07 00:07:16;;;;;;;13.90;12.53;;;;;;;19.01;100.00;92890.84;5069413;28;20187;-74
2023/07/07 00:09:41;;;;;;;12.97;11.87;;;;;;;19.10;100.00;92898.69;5072261;28;20219;-74
2023/07/07 00:12:07;;;;;;;13.90;12.70;;;;;;;19.11;100.00;92913.50;5068620;28;20230;-74
2023/07/07 00:14:33;;;;;;;13.80;12.60;;;;;;;19.07;100.00;92915.22;5068691;28;20231;-74
2023/07/07 00:17:01;;;;;;;13.93;12.83;;;;;;;18.93;100.00;92889.03;5069383;28;20783;-74
2023/07/07 00:19:34;;;;;;;13.57;12.37;;;;;;;19.06;100.00;92903.09;5069282;28;20244;-74
2023/07/07 00:22:01;;;;;;;13.23;12.23;;;;;;;18.88;100.00;92899.78;5080591;28;20178;-74
2023/07/07 00:24:26;;;;;;;13.27;12.17;;;;;;;18.82;100.00;92897.66;5068470;28;20211;-74
2023/07/07 00:26:52;;;;;;;14.13;12.90;;;;;;;18.93;100.00;92896.19;5069063;28;20181;-74
2023/07/07 00:29:17;;;;;;;13.93;12.73;;;;;;;18.96;100.00;92906.13;5068903;28;20218;-74
2023/07/07 00:31:43;;;;;;;15.67;14.33;;;;;;;18.86;100.00;92896.69;5068996;28;20193;-74
2023/07/07 00:34:08;;;;;;;14.50;13.40;;;;;;;18.92;100.00;92902.56;5068483;28;20246;-73
2023/07/07 00:36:33;;;;;;;13.90;12.67;;;;;;;18.90;100.00;92894.97;5068309;28;20291;-74
2023/07/07 00:38:59;;;;;;;14.13;12.83;;;;;;;18.95;100.00;92900.06;5069222;28;20226;-74
2023/07/07 00:41:24;;;;;;;13.83;12.47;;;;;;;18.81;100.00;92898.75;5068499;28;20218;-74
2023/07/07 00:44:00;;;;;;;14.77;13.37;;;;;;;18.79;100.00;92898.28;5068624;28;21178;-74
2023/07/07 00:46:25;;;;;;;13.97;12.60;;;;;;;18.70;100.00;92900.22;5071651;28;20286;-74
2023/07/07 00:48:51;;;;;;;13.67;12.47;;;;;;;18.71;100.00;92907.06;5055094;28;20195;-74
2023/07/07 00:51:22;;;;;;;14.07;12.97;;;;;;;18.76;100.00;92910.31;5071773;28;20244;-74
2023/07/07 00:53:51;;;;;;;13.67;12.47;;;;;;;18.60;100.00;92903.25;5072472;28;20274;-74
2023/07/07 00:56:21;;;;;;;14.87;13.73;;;;;;;18.66;100.00;92902.72;5071493;28;20222;-74
2023/07/07 00:58:46;;;;;;;14.30;13.10;;;;;;;18.52;100.00;92912.00;5072203;28;20218;-74
2023/07/07 01:01:17;;;;;;;13.10;12.10;;;;;;;18.56;100.00;92921.63;5071527;28;20238;-75
2023/07/07 01:03:46;;;;;;;13.70;12.63;;;;;;;18.42;100.00;92913.13;5056386;28;20254;-74
2023/07/07 01:06:17;;;;;;;14.63;12.97;;;;;;;18.49;100.00;92915.28;5082783;28;20256;-74
2023/07/07 01:08:45;;;;;;;15.23;13.87;;;;;;;18.61;100.00;92916.16;5055623;28;20263;-74
2023/07/07 01:11:11;;;;;;;15.90;14.53;;;;;;;18.62;100.00;92911.63;5054850;28;20210;-74
2023/07/07 01:13:37;;;;;;;16.07;14.57;;;;;;;18.74;100.00;92912.50;5034835;28;20253;-74
2023/07/07 01:16:18;;;;;;;17.67;15.87;;;;;;;18.94;100.00;92906.44;5049672;28;20299;-74
2023/07/07 01:18:43;;;;;;;16.83;15.33;;;;;;;19.05;100.00;92912.16;5059275;28;20192;-74
2023/07/07 01:21:37;;;;;;;17.43;15.83;;;;;;;19.05;100.00;92912.16;5054360;28;20273;-74
2023/07/07 01:24:35;;;;;;;20.03;18.07;;;;;;;19.12;100.00;92907.88;5037338;28;20192;-74
2023/07/07 01:27:22;;;;;;;19.40;17.37;;;;;;;19.19;100.00;92907.38;5044292;28;20284;-74
2023/07/07 01:30:00;;;;;;;19.13;17.40;;;;;;;19.17;100.00;92904.25;5040124;28;20238;-74
2023/07/07 01:32:29;;;;;;;18.70;16.93;;;;;;;19.18;100.00;92906.59;5051918;28;20183;-73
2023/07/07 01:34:57;;;;;;;20.40;18.50;;;;;;;19.22;100.00;92901.44;5051056;28;20292;-74
2023/07/07 01:37:23;;;;;;;23.40;19.23;;;;;;;19.32;100.00;92914.28;5084117;28;20189;-74
2023/07/07 01:39:50;;;;;;;20.90;18.67;;;;;;;19.28;100.00;92909.97;5051514;28;20251;-74
2023/07/07 01:42:43;;;;;;;21.07;18.93;;;;;;;19.23;100.00;92912.78;5051333;28;20204;-73
2023/07/07 01:45:16;;;;;;;21.57;19.40;;;;;;;19.34;100.00;92920.03;5051090;28;20232;-74
2023/07/07 01:47:51;;;;;;;22.57;20.30;;;;;;;19.40;100.00;92921.38;5051766;28;20195;-72
2023/07/07 01:50:23;;;;;;;20.93;19.03;;;;;;;19.51;100.00;92925.19;5048735;28;20593;-74
2023/07/07 01:52:53;;;;;;;22.02;19.92;;;;;;;19.51;100.00;92919.88;5042790;28;20211;-73
2023/07/07 01:55:23;;;;;;;22.17;19.87;;;;;;;19.53;100.00;92916.91;5051378;28;20229;-73
2023/07/07 01:57:53;;;;;;;21.83;19.37;;;;;;;19.51;100.00;92919.88;5043808;28;20195;-73
2023/07/07 02:00:19;;;;;;;21.27;19.37;;;;;;;19.59;100.00;92924.34;5050712;28;20224;-71
2023/07/07 02:02:45;;;;;;;22.40;20.20;;;;;;;19.61;100.00;92918.72;5083836;28;20192;-71
2023/07/07 02:05:12;;;;;;;22.70;20.60;;;;;;;19.80;100.00;92911.06;5082061;28;20360;-71
2023/07/07 02:07:38;;;;;;;23.87;21.47;;;;;;;19.94;100.00;92911.50;5083493;28;20215;-71
2023/07/07 02:10:04;;;;;;;22.83;20.50;;;;;;;19.92;100.00;92919.03;5051166;28;20249;-71
2023/07/07 02:12:30;;;;;;;24.17;21.87;;;;;;;19.95;100.00;92913.06;5050809;28;20220;-71
2023/07/07 02:14:55;;;;;;;25.40;22.13;;;;;;;19.91;100.00;92920.91;5050596;28;20229;-71
2023/07/07 02:17:20;;;;;;;25.00;22.37;;;;;;;19.88;100.00;92913.59;5051253;28;20188;-72
2023/07/07 02:19:46;;;;;;;27.23;24.20;;;;;;;19.95;100.00;92916.50;5060446;28;20246;-71
2023/07/07 02:22:12;;;;;;;26.00;23.20;;;;;;;20.04;100.00;92922.47;5054278;28;20181;-71
2023/07/07 02:24:37;;;;;;;25.50;22.80;;;;;;;20.00;100.00;92915.53;5050422;28;20240;-71
2023/07/07 02:27:03;;;;;;;24.60;22.10;;;;;;;19.93;100.00;92913.41;5078191;28;20177;-72
2023/07/07 02:29:29;;;;;;;25.57;22.77;;;;;;;19.87;100.00;92916.59;5050112;28;20200;-72
2023/07/07 02:31:54;;;;;;;24.30;21.70;;;;;;;19.79;100.00;92915.56;5050711;28;20197;-71
2023/07/07 02:34:20;;;;;;;23.80;21.30;;;;;;;19.87;100.00;92921.88;5049703;28;20988;-70
2023/07/07 02:36:45;;;;;;;23.43;21.03;;;;;;;19.81;100.00;92923.97;5051003;28;20193;-71
2023/07/07 02:39:11;;;;;;;24.40;21.10;;;;;;;19.79;100.00;92920.88;5050254;28;20177;-71
2023/07/07 02:41:36;;;;;;;23.30;20.83;;;;;;;19.83;100.00;92921.75;5050815;28;20196;-71
2023/07/07 02:44:01;;;;;;;25.03;21.57;;;;;;;19.75;100.00;92921.84;5050536;28;20794;-71
2023/07/07 02:46:27;;;;;;;25.00;21.63;;;;;;;19.67;100.00;92907.59;5053303;28;20218;-71
2023/07/07 02:48:52;;;;;;;24.40;21.97;;;;;;;19.90;100.00;92916.72;5050852;28;20215;-71
2023/07/07 02:51:18;;;;;;;24.70;22.02;;;;;;;19.92;100.00;92909.19;5050311;28;20221;-71
2023/07/07 02:53:43;;;;;;;24.47;22.03;;;;;;;19.91;100.00;92915.59;5050176;28;20219;-71
2023/07/07 02:56:09;;;;;;;24.27;21.87;;;;;;;19.85;100.00;92921.44;5049911;28;20239;-71
2023/07/07 02:58:34;;;;;;;24.50;21.87;;;;;;;19.92;100.00;92927.75;5047054;28;20190;-71
2023/07/07 03:01:11;;;;;;;24.87;22.30;;;;;;;19.93;100.00;92928.53;5042855;28;20239;-71
2023/07/07 03:03:38;;;;;;;26.73;22.30;;;;;;;19.85;100.00;92919.56;5049510;28;20219;-71
2023/07/07 03:06:09;;;;;;;25.27;22.10;;;;;;;19.92;100.00;92933.03;5049862;28;20236;-71
2023/07/07 03:08:36;;;;;;;25.40;22.73;;;;;;;19.92;100.00;92933.03;5049334;28;20192;-71
2023/07/07 03:11:11;;;;;;;24.90;22.20;;;;;;;19.84;100.00;92923.31;5048740;28;20213;-72
2023/07/07 03:13:37;;;;;;;23.77;20.60;;;;;;;20.03;100.00;92931.53;5042816;28;20224;-71
2023/07/07 03:16:11;;;;;;;24.17;21.67;;;;;;;20.03;100.00;92930.75;5065440;28;20215;-71
2023/07/07 03:18:37;;;;;;;24.63;22.13;;;;;;;19.98;100.00;92923.81;5076090;28;20206;-71
2023/07/07 03:21:03;;;;;;;23.80;21.50;;;;;;;20.06;100.00;92928.22;5078238;28;20226;-71
2023/07/07 03:23:28;;;;;;;25.30;22.60;;;;;;;20.13;100.00;92931.16;5061699;28;20196;-71
2023/07/07 03:25:54;;;;;;;24.87;22.10;;;;;;;20.29;100.00;92926.75;5068693;28;20216;-71
2023/07/07 03:28:19;;;;;;;26.23;23.33;;;;;;;20.26;100.00;92919.47;5070106;28;20251;-72
2023/07/07 03:30:44;;;;;;;30.67;23.27;;;;;;;20.31;100.00;92924.53;5069389;28;20232;-71
2023/07/07 03:33:12;;;;;;;30.33;23.70;;;;;;;20.34;100.00;92923.13;5069661;28;20204;-70
2023/07/07 03:35:38;;;;;;;26.67;23.07;;;;;;;20.33;100.00;92924.97;5069259;28;20220;-71
2023/07/07 03:38:03;;;;;;;26.93;23.90;;;;;;;20.39;100.00;92913.03;5069760;28;20248;-71
2023/07/07 03:40:28;;;;;;;28.30;24.40;;;;;;;20.43;100.00;92919.25;5069353;28;20291;-71
2023/07/07 03:42:54;;;;;;;25.30;22.70;;;;;;;20.64;100.00;92927.88;5069431;28;20189;-71
2023/07/07 03:45:19;;;;;;;26.27;23.47;;;;;;;20.65;99.46;92924.09;5080126;28;20223;-71
2023/07/07 03:47:45;;;;;;;24.95;22.45;;;;;;;20.73;99.24;92928.53;5069971;28;20215;-71
2023/07/07 03:50:10;;;;;;;31.17;24.85;;;;;;;20.89;98.27;92933.19;5069142;28;20247;-71
2023/07/07 03:52:35;;;;;;;28.48;24.30;;;;;;;20.95;98.42;92934.50;5069279;28;20196;-71
2023/07/07 03:55:02;;;;;;;30.48;24.15;;;;;;;20.88;97.58;92935.03;5068743;28;20224;-71
2023/07/07 03:57:27;;;;;;;27.98;25.10;;;;;;;21.12;97.46;92923.66;5068076;28;20190;-71
2023/07/07 03:59:53;;;;;;;28.60;25.27;;;;;;;21.29;96.32;92918.84;5075963;28;20255;-72
2023/07/07 04:02:18;;;;;;;27.17;23.52;;;;;;;21.42;94.99;92930.19;5076809;28;20216;-71
2023/07/07 04:04:44;;;;;;;27.73;23.70;;;;;;;21.53;95.02;92936.59;5068122;28;20229;-66
2023/07/07 04:07:09;;;;;;;27.27;24.17;;;;;;;21.42;95.94;92938.16;5069068;28;20183;-68
2023/07/07 04:09:35;;;;;;;25.17;22.52;;;;;;;21.59;95.30;92938.66;5065924;28;20234;-67
2023/07/07 04:12:00;;;;;;;26.25;23.45;;;;;;;21.50;95.15;92927.41;5066829;28;20228;-69
2023/07/07 04:14:27;;;;;;;28.38;23.88;;;;;;;21.47;95.92;92937.94;5050022;28;20218;-68
2023/07/07 04:16:53;;;;;;;26.75;22.92;;;;;;;21.69;94.61;92942.72;5066417;28;20192;-67
2023/07/07 04:19:20;;;;;;;26.73;23.80;;;;;;;21.55;94.94;92937.03;5062354;28;20229;-66
2023/07/07 04:21:45;;;;;;;34.50;24.15;;;;;;;21.90;93.53;92951.31;5076348;28;20191;-67
2023/07/07 04:24:11;;;;;;;28.27;23.73;;;;;;;21.55;94.66;92947.66;5068787;28;20195;-67
2023/07/07 04:26:38;;;;;;;25.58;22.67;;;;;;;21.61;95.00;92947.09;5062916;28;20198;-66
2023/07/07 04:29:04;;;;;;;24.63;22.00;;;;;;;21.67;93.88;92929.00;5060462;28;20187;-67
2023/07/07 04:31:30;;;;;;;25.40;22.80;;;;;;;21.93;93.89;92932.78;5065454;28;20227;-66
2023/07/07 04:33:56;;;;;;;26.83;23.77;;;;;;;22.09;93.70;92935.47;5061020;28;20199;-68
2023/07/07 04:36:22;;;;;;;27.92;23.48;;;;;;;21.96;93.18;92936.69;5069690;28;20294;-69
2023/07/07 04:38:49;;;;;;;25.95;22.35;;;;;;;23.05;88.25;92948.13;5071156;28;20217;-66
2023/07/07 04:41:20;;;;;;;25.65;22.73;;;;;;;23.13;88.25;92951.72;5071353;28;20254;-67
2023/07/07 04:43:51;;;;;;;25.60;22.77;;;;;;;22.89;88.02;92949.25;5066371;28;20193;-68
2023/07/07 04:46:38;;;;;;;24.77;22.25;;;;;;;23.47;85.90;92950.97;5069850;28;20224;-66
2023/07/07 04:49:08;;;;;;;24.80;22.05;;;;;;;23.80;83.53;92958.50;5062998;28;20893;-65
2023/07/07 04:51:41;;;;;;;23.48;21.00;;;;;;;23.45;83.59;92969.19;5062188;28;20216;-67
2023/07/07 04:54:09;;;;;;;25.67;21.83;;;;;;;23.59;84.12;92970.28;5065850;28;20192;-66
2023/07/07 04:56:35;;;;;;;24.08;21.67;;;;;;;23.20;85.03;92973.97;5062983;28;20310;-69
2023/07/07 04:59:01;;;;;;;24.52;22.00;;;;;;;22.98;85.62;92966.59;5070018;28;20187;-66
2023/07/07 05:01:29;;;;;;;23.17;20.70;;;;;;;22.76;87.25;92969.88;5057374;28;20311;-67
2023/07/07 05:03:57;;;;;;;27.27;21.67;;;;;;;22.97;87.40;92973.06;5054057;28;20204;-67
2023/07/07 05:06:24;;;;;;;27.23;22.90;;;;;;;22.81;87.31;92972.31;5056423;28;20258;-66
2023/07/07 05:08:49;;;;;;;25.45;22.75;;;;;;;23.37;85.56;92957.63;5065584;28;20192;-65
2023/07/07 05:11:18;;;;;;;25.73;22.25;;;;;;;23.46;85.68;92976.84;5061740;28;20241;-67
2023/07/07 05:13:48;;;;;;;25.30;22.60;;;;;;;23.01;88.38;92970.47;5070867;28;20215;-68
2023/07/07 05:16:17;;;;;;;24.73;22.13;;;;;;;23.08;87.97;92968.72;5065093;28;20397;-70
2023/07/07 05:18:43;;;;;;;24.20;21.80;;;;;;;22.67;89.69;92966.63;5070229;28;20193;-69
2023/07/07 05:21:10;;;;;;;25.42;22.58;;;;;;;22.97;86.11;92965.06;5052342;28;20223;-68
2023/07/07 05:23:36;;;;;;;24.10;21.60;;;;;;;23.78;82.81;92980.19;5062429;28;20191;-67
2023/07/07 05:26:02;;;;;;;25.73;22.23;;;;;;;24.11;81.41;92982.38;5061422;28;20228;-69
2023/07/07 05:28:27;;;;;;;25.25;22.38;;;;;;;23.91;82.41;92983.50;5066712;28;20231;-69
2023/07/07 05:30:53;;;;;;;26.50;22.67;;;;;;;23.28;84.66;92980.25;5065731;28;20246;-68
2023/07/07 05:33:20;;;;;;;23.00;20.73;;;;;;;23.78;83.10;92980.94;5056240;28;20213;-69
2023/07/07 05:35:58;;;;;;;25.50;21.27;;;;;;;24.45;80.54;92992.16;5070102;28;20290;-68
2023/07/07 05:38:26;;;;;;;23.40;21.02;;;;;;;23.88;82.25;92986.84;5067044;28;20193;-69
2023/07/07 05:40:52;;;;;;;24.20;21.42;;;;;;;23.87;82.00;92991.41;5069340;28;20227;-69
2023/07/07 05:43:20;;;;;;;35.53;22.50;;;;;;;24.85;80.06;92997.84;5069646;28;20257;-68
2023/07/07 05:45:46;;;;;;;23.80;21.23;;;;;;;27.91;67.37;93007.41;5057268;28;20209;-68
2023/07/07 05:48:12;;;;;;;23.27;20.85;;;;;;;25.74;72.39;92998.84;5065983;28;20212;-69
2023/07/07 05:50:39;;;;;;;23.13;20.50;;;;;;;23.74;81.08;92998.00;5056974;28;20221;-68
2023/07/07 05:53:05;;;;;;;26.67;21.02;;;;;;;23.72;81.62;92985.00;5069764;28;20200;-69
2023/07/07 05:55:33;;;;;;;23.42;20.88;;;;;;;23.29;84.20;92993.22;5063317;28;20236;-69
2023/07/07 05:57:59;;;;;;;24.00;21.55;;;;;;;23.78;82.73;92993.53;5060968;28;20214;-69
2023/07/07 06:00:27;;;;;;;26.17;21.60;;;;;;;23.57;82.71;93004.50;5057176;28;20513;-69
2023/07/07 06:02:53;;;;;;;25.88;20.27;;;;;;;24.47;79.71;93005.91;5059888;28;20245;-69
2023/07/07 06:05:18;;;;;;;27.00;23.73;;;;;;;25.35;76.12;92997.53;5059699;28;20233;-70
2023/07/07 06:07:44;;;;;;;25.17;20.27;;;;;;;25.81;72.18;93009.59;5067064;28;20196;-71
2023/07/07 06:10:10;;;;;;;23.48;20.65;;;;;;;25.89;72.16;93013.16;5068530;28;20220;-71
2023/07/07 06:12:37;;;;;;;23.20;20.67;;;;;;;24.29;80.08;93008.28;5066791;28;20289;-70
2023/07/07 06:15:03;;;;;;;25.15;21.75;;;;;;;23.93;81.26;93008.69;5066511;28;20217;-69
2023/07/07 06:17:29;;;;;;;28.58;21.80;;;;;;;23.88;83.63;93000.94;5075719;28;20206;-69
2023/07/07 06:19:54;;;;;;;25.92;20.45;;;;;;;24.07;79.91;92997.53;5070795;28;20232;-71
2023/07/07 06:22:20;;;;;;;24.42;21.05;;;;;;;24.07;78.31;93009.00;5078975;28;20204;-71
2023/07/07 06:24:45;;;;;;;25.08;20.60;;;;;;;24.17;79.59;93000.44;5066642;28;20232;-71
2023/07/07 06:27:10;;;;;;;23.23;20.85;;;;;;;24.07;79.87;93005.53;5069938;28;20256;-68
2023/07/07 06:29:36;;;;;;;23.45;21.00;;;;;;;23.61;81.76;93001.94;5064219;28;20231;-67
2023/07/07 06:32:01;;;;;;;23.98;21.52;;;;;;;23.45;82.81;93007.31;5065730;28;20227;-68
2023/07/07 06:34:28;;;;;;;23.27;21.10;;;;;;;23.53;82.32;93006.31;5061465;28;20230;-68
2023/07/07 06:36:53;;;;;;;25.10;22.48;;;;;;;24.31;78.35;93013.25;5074691;28;20207;-68
2023/07/07 06:39:18;;;;;;;23.20;20.88;;;;;;;26.79;70.12;93017.28;5064646;28;20190;-68
2023/07/07 06:41:44;;;;;;;21.77;19.52;;;;;;;28.40;63.41;93013.00;5062001;28;20265;-69
2023/07/07 06:44:09;;;;;;;23.15;20.65;;;;;;;29.36;59.36;93020.09;5066609;28;20192;-69
2023/07/07 06:46:35;;;;;;;21.75;19.65;;;;;;;29.58;57.44;93033.19;5058647;28;20296;-68
2023/07/07 06:49:02;;;;;;;24.80;20.35;;;;;;;29.02;58.88;93035.81;5063532;28;21026;-68
2023/07/07 06:51:27;;;;;;;20.52;18.52;;;;;;;28.01;62.96;93033.56;5068783;28;20225;-72
2023/07/07 06:53:53;;;;;;;21.60;19.30;;;;;;;26.31;69.96;93019.03;5068941;28;20194;-69
2023/07/07 06:56:18;;;;;;;21.35;19.35;;;;;;;25.40;71.98;92997.22;5067542;28;20224;-70
2023/07/07 06:58:44;;;;;;;26.38;19.83;;;;;;;25.41;74.39;93019.34;5068922;28;20189;-70
2023/07/07 07:01:12;;;;;;;22.58;20.38;;;;;;;24.60;76.82;93028.66;5060428;28;20221;-69
2023/07/07 07:03:39;;;;;;;22.92;20.42;;;;;;;24.97;75.15;93027.03;5066242;28;20186;-71
2023/07/07 07:06:04;;;;;;;23.60;21.05;;;;;;;25.52;74.82;93023.75;5060880;28;20233;-71
2023/07/07 07:08:30;;;;;;;23.67;19.20;;;;;;;25.58;74.85;93032.22;5070650;28;20946;-70
2023/07/07 07:10:55;;;;;;;22.33;19.98;;;;;;;25.24;74.20;93032.09;5059761;28;20228;-73
2023/07/07 07:13:21;;;;;;;22.73;20.33;;;;;;;25.15;76.06;93028.88;5054795;28;20230;-71
2023/07/07 07:15:46;;;;;;;22.02;19.80;;;;;;;24.52;77.38;93026.97;5046456;28;20227;-69
2023/07/07 07:18:13;;;;;;;21.50;19.50;;;;;;;24.11;77.91;93022.41;5032037;28;20217;-70
2023/07/07 07:20:38;;;;;;;23.55;19.20;;;;;;;23.95;78.96;92997.66;5031512;28;20257;-68
2023/07/07 07:23:04;;;;;;;21.58;19.38;;;;;;;24.38;79.34;93032.84;5032017;28;20202;-71
2023/07/07 07:25:30;;;;;;;20.67;18.50;;;;;;;24.35;77.30;93035.44;5028526;28;20226;-69
2023/07/07 07:27:55;;;;;;;23.40;17.83;;;;;;;24.74;77.58;93032.41;5039754;28;20214;-71
2023/07/07 07:30:20;;;;;;;21.30;19.20;;;;;;;24.99;76.50;93051.50;5021922;28;20222;-69
2023/07/07 07:32:46;;;;;;;19.67;17.85;;;;;;;25.05;74.43;93044.75;5030580;28;20233;-70
2023/07/07 07:35:12;;;;;;;20.58;18.55;;;;;;;25.26;72.87;93050.44;5039547;28;20234;-69
2023/07/07 07:37:37;;;;;;;20.45;18.45;;;;;;;25.84;72.43;93053.63;5040561;28;20217;-71
2023/07/07 07:40:03;;;;;;;20.17;18.08;;;;;;;24.94;74.62;93057.16;5035699;28;20239;-70
2023/07/07 07:42:29;;;;;;;20.63;18.58;;;;;;;24.47;76.36;93061.97;5030775;28;20182;-70
2023/07/07 07:44:55;;;;;;;20.80;18.08;;;;;;;25.37;74.03;93055.97;5036618;28;20234;-69
2023/07/07 07:47:20;;;;;;;20.98;17.85;;;;;;;25.90;70.83;93058.25;5031305;28;20285;-71
2023/07/07 07:49:46;;;;;;;20.15;18.00;;;;;;;25.43;71.78;93063.34;5029475;28;20230;-69
2023/07/07 07:52:11;;;;;;;19.38;17.38;;;;;;;25.10;73.16;93063.16;5031955;28;20189;-68
2023/07/07 07:54:38;;;;;;;20.23;18.27;;;;;;;25.42;72.18;93064.44;5041359;28;20234;-68
2023/07/07 07:57:04;;;;;;;18.77;16.77;;;;;;;25.34;71.06;93070.81;5034651;28;20235;-71
2023/07/07 07:59:29;;;;;;;19.50;17.40;;;;;;;24.84;73.79;93061.19;5033466;28;21667;-68
2023/07/07 08:01:55;;;;;;;19.48;16.52;;;;;;;24.68;73.99;93063.19;5033518;28;20271;-69
2023/07/07 08:04:20;;;;;;;20.17;17.95;;;;;;;24.54;76.70;93072.81;5033419;28;20189;-69
2023/07/07 08:06:48;;;;;;;20.00;17.90;;;;;;;24.33;76.12;93073.16;5034066;28;20183;-69
2023/07/07 08:09:13;;;;;;;20.40;18.50;;;;;;;24.32;78.52;93076.19;5033414;28;20213;-68
2023/07/07 08:11:42;;;;;;;20.63;18.52;;;;;;;24.11;79.57;93068.50;5039889;28;20186;-69
2023/07/07 08:14:16;;;;;;;22.17;19.90;;;;;;;24.45;78.98;93075.69;5051520;28;20186;-70
2023/07/07 08:16:41;;;;;;;21.02;18.45;;;;;;;23.97;81.62;93067.47;5048365;28;20240;-70
2023/07/07 08:19:07;;;;;;;22.02;19.75;;;;;;;24.58;80.52;93078.97;5052799;28;20177;-69
2023/07/07 08:21:34;;;;;;;19.50;17.52;;;;;;;25.11;77.40;93091.41;5058743;28;20237;-70
2023/07/07 08:23:59;;;;;;;20.05;17.98;;;;;;;24.53;78.97;93087.28;5055597;28;20786;-70
2023/07/07 08:26:25;;;;;;;19.30;17.48;;;;;;;24.95;77.25;93088.84;5057457;28;20212;-70
2023/07/07 08:28:50;;;;;;;19.88;17.90;;;;;;;25.48;73.97;93091.69;5064361;28;20185;-70
2023/07/07 08:31:16;;;;;;;21.77;19.27;;;;;;;24.89;77.73;93090.28;5052474;28;20228;-70
2023/07/07 08:33:43;;;;;;;20.73;18.73;;;;;;;24.80;75.81;93083.59;5053402;28;20204;-69
2023/07/07 08:36:09;;;;;;;20.95;18.83;;;;;;;24.58;76.05;93062.94;5065024;28;20237;-69
2023/07/07 08:38:35;;;;;;;22.70;19.92;;;;;;;25.19;77.11;93077.81;5061363;28;20272;-68
2023/07/07 08:41:01;;;;;;;20.50;18.52;;;;;;;25.84;74.09;93069.66;5055761;28;20255;-70
2023/07/07 08:43:30;;;;;;;18.55;16.58;;;;;;;25.18;76.18;93075.50;5053151;28;20251;-69
2023/07/07 08:46:14;;;;;;;18.70;16.70;;;;;;;25.15;77.33;93073.56;5059176;28;20233;-70
2023/07/07 08:48:54;;;;;;;19.50;17.45;;;;;;;25.63;74.29;93074.69;5051162;28;20205;-68
2023/07/07 08:51:25;;;;;;;19.08;17.20;;;;;;;25.41;77.51;93068.25;5053821;28;20230;-67
2023/07/07 08:54:05;;;;;;;19.77;17.88;;;;;;;25.09;76.79;93066.97;5061770;28;20261;-68
2023/07/07 08:57:11;;;;;;;18.15;16.45;;;;;;;25.12;78.58;93066.25;5051913;28;20217;-69
2023/07/07 08:59:42;;;;;;;18.42;16.63;;;;;;;24.97;75.77;93065.22;5047787;28;20706;-69
2023/07/07 09:02:45;;;;;;;20.95;18.73;;;;;;;24.98;76.14;93066.75;5054060;28;20187;-68
2023/07/07 09:05:14;;;;;;;19.35;17.30;;;;;;;25.40;75.27;93058.72;5054882;28;20230;-74
2023/07/07 09:07:52;;;;;;;18.85;17.00;;;;;;;25.04;74.93;93062.66;5053502;28;20179;-75
2023/07/07 09:10:34;;;;;;;17.92;16.13;;;;;;;25.01;73.33;93062.63;5084475;28;20221;-75
2023/07/07 09:13:05;;;;;;;19.52;17.58;;;;;;;25.26;73.59;93061.13;5054732;28;20225;-75
2023/07/07 09:15:38;;;;;;;18.88;17.15;;;;;;;25.39;72.92;93061.75;5051769;28;20259;-76
2023/07/07 09:18:17;;;;;;;18.77;16.88;;;;;;;25.25;73.90;93047.00;5052128;28;20205;-75
2023/07/07 09:20:45;;;;;;;18.77;16.98;;;;;;;25.31;74.87;93052.03;5060816;28;20209;-74
2023/07/07 09:23:17;;;;;;;20.85;17.67;;;;;;;25.15;76.15;93049.50;5044506;28;20189;-75
2023/07/07 09:25:50;;;;;;;19.35;17.30;;;;;;;25.06;74.86;93062.31;5050726;28;20285;-75
2023/07/07 09:28:17;;;;;;;17.58;15.98;;;;;;;25.00;73.56;93061.06;5050842;28;20274;-75
2023/07/07 09:30:47;;;;;;;18.67;16.98;;;;;;;24.79;75.66;93055.38;5049733;28;20217;-75
2023/07/07 09:33:18;;;;;;;18.88;16.88;;;;;;;25.05;73.89;93052.75;5050548;28;20178;-75
2023/07/07 09:35:53;;;;;;;19.42;17.65;;;;;;;25.48;73.71;93056.91;5047943;28;20217;-75
2023/07/07 09:38:41;;;;;;;18.73;16.48;;;;;;;25.58;70.90;93062.41;5042724;28;20193;-75
2023/07/07 09:41:15;;;;;;;18.27;15.88;;;;;;;26.14;69.50;93062.44;5050540;28;20229;-75
2023/07/07 09:44:04;;;;;;;20.85;16.92;;;;;;;26.41;67.74;93064.69;5051793;28;20181;-74
2023/07/07 09:46:45;;;;;;;17.60;15.80;;;;;;;26.70;67.61;93057.75;5051620;28;20214;-75
2023/07/07 09:50:01;;;;;;;16.75;15.23;;;;;;;27.08;61.45;93068.09;5071183;28;20189;-74
2023/07/07 09:52:47;;;;;;;16.92;15.32;;;;;;;26.56;64.12;93054.91;4990054;28;20188;-75
2023/07/07 09:55:26;;;;;;;15.40;13.88;;;;;;;26.00;63.47;93062.25;5048075;28;21083;-75
2023/07/07 09:58:04;;;;;;;16.38;14.88;;;;;;;26.31;64.54;93054.63;5083839;28;20178;-74
2023/07/07 10:00:31;;;;;;;16.75;15.00;;;;;;;26.48;65.72;93055.97;5077617;28;20221;-74
2023/07/07 10:02:58;;;;;;;15.55;14.05;;;;;;;26.21;64.53;93047.22;5051420;28;20198;-75
2023/07/07 10:05:30;;;;;;;16.35;14.85;;;;;;;26.31;65.15;93051.94;5051029;28;20210;-75
2023/07/07 10:07:58;;;;;;;19.73;15.23;;;;;;;25.93;65.95;93054.88;5051263;28;20186;-75
2023/07/07 10:10:24;;;;;;;16.20;14.70;;;;;;;25.46;65.61;93049.25;5051062;28;20233;-74
2023/07/07 10:12:49;;;;;;;16.60;15.07;;;;;;;25.83;63.51;93050.16;5054191;28;20213;-75
2023/07/07 10:15:26;;;;;;;15.85;14.32;;;;;;;26.15;63.52;93053.28;5050477;28;20249;-75
2023/07/07 10:18:03;;;;;;;16.13;14.63;;;;;;;26.32;64.20;93052.72;5050560;28;20199;-75
2023/07/07 10:20:30;;;;;;;15.25;13.55;;;;;;;26.41;62.36;93051.28;5058231;28;20220;-75
2023/07/07 10:22:55;;;;;;;15.45;13.95;;;;;;;26.58;60.47;93049.97;5052237;28;20190;-74
2023/07/07 10:25:22;;;;;;;14.85;13.55;;;;;;;26.44;63.17;93058.63;5050742;28;20329;-74
2023/07/07 10:27:51;;;;;;;15.00;13.60;;;;;;;25.95;61.33;93039.22;5049822;28;20194;-74
2023/07/07 10:30:17;;;;;;;15.80;14.25;;;;;;;25.62;63.19;93033.81;5050534;28;20229;-74
2023/07/07 10:32:43;;;;;;;16.17;14.45;;;;;;;26.06;64.14;93034.03;5050850;28;20174;-76
2023/07/07 10:35:09;;;;;;;15.70;14.30;;;;;;;26.12;63.34;93046.75;5050422;28;20230;-75
2023/07/07 10:37:37;;;;;;;15.35;13.77;;;;;;;26.36;60.68;93040.13;5075455;28;20186;-76
2023/07/07 10:40:03;;;;;;;15.75;14.15;;;;;;;26.21;63.41;93041.88;5050480;28;20256;-75
2023/07/07 10:42:31;;;;;;;15.73;14.32;;;;;;;26.86;62.74;93044.13;5050826;28;20189;-74
2023/07/07 10:44:58;;;;;;;15.93;14.35;;;;;;;26.25;61.55;93039.25;5050313;28;20230;-75
2023/07/07 10:47:32;;;;;;;16.35;14.70;;;;;;;26.82;61.54;93043.34;5050495;28;20184;-75
2023/07/07 10:49:59;;;;;;;16.75;15.00;;;;;;;26.00;60.60;93036.28;5049429;28;20225;-70
2023/07/07 10:52:37;;;;;;;16.63;15.10;;;;;;;26.11;60.77;93026.47;5045333;28;20190;-70
2023/07/07 10:55:14;;;;;;;15.02;13.60;;;;;;;26.70;61.07;93026.41;5045593;28;20276;-70
2023/07/07 10:57:54;;;;;;;15.57;13.90;;;;;;;26.76;60.72;93018.03;5049137;28;20272;-71
2023/07/07 11:00:34;;;;;;;16.08;14.57;;;;;;;26.95;61.91;93005.19;5048518;28;20236;-71
2023/07/07 11:03:18;;;;;;;16.55;15.02;;;;;;;26.40;64.26;93012.25;5048129;28;20210;-71
2023/07/07 11:05:47;;;;;;;16.30;14.85;;;;;;;25.99;63.62;93007.97;5048419;28;20317;-71
2023/07/07 11:08:28;;;;;;;16.63;14.77;;;;;;;26.21;63.79;93009.00;5043477;28;20185;-73
2023/07/07 11:11:06;;;;;;;16.08;14.60;;;;;;;26.52;63.28;93003.22;5050922;28;20351;-72
2023/07/07 11:14:07;;;;;;;15.88;14.25;;;;;;;26.12;62.10;93014.63;5043453;28;20217;-71
2023/07/07 11:16:51;;;;;;;16.98;15.18;;;;;;;26.82;62.73;93016.56;5037855;28;20259;-70
2023/07/07 11:19:52;;;;;;;16.50;14.80;;;;;;;26.34;62.73;93015.63;5045118;28;20274;-70
2023/07/07 11:22:36;;;;;;;15.77;14.48;;;;;;;26.83;63.90;93010.03;5026496;28;20206;-71
2023/07/07 11:25:19;;;;;;;16.25;14.60;;;;;;;27.09;58.95;93009.88;5047506;28;20249;-71